METAR Data
IDs: Format: Raw Decoded Include TAF

Data at: 2341 UTC 25 Oct 2021

KMRF 252256Z AUTO 15012KT 10SM CLR 29/M01 A3007 RMK AO2 SLP133 T02891006
KMRF 252156Z AUTO 16012G23KT 7SM CLR 29/01 A3008 RMK AO2 SLP135 T02940006
KMRF 252056Z AUTO 16015G19KT 10SM CLR 29/01 A3009 RMK AO2 SLP139 T02940011 56021
KMRF 251956Z AUTO 16010KT 10SM CLR 29/01 A3010 RMK AO2 SLP142 T02940011
KMRF 251856Z AUTO VRB04G16KT 10SM CLR 29/01 A3013 RMK AO2 SLP154 T02890011
KMRF 251756Z AUTO 17008KT 10SM CLR 28/02 A3016 RMK AO2 SLP163 T02780017 10278 20056 58006
KMRF 251656Z AUTO 19005KT 10SM CLR 26/01 A3017 RMK AO2 SLP169 T02610011
KMRF 251556Z AUTO VRB03KT 10SM CLR 24/02 A3018 RMK AO2 SLP172 T02390017
KMRF 251456Z AUTO 33003KT 10SM CLR 21/02 A3018 RMK AO2 SLP178 T02060022 53005
KMRF 251356Z AUTO 34004KT 10SM CLR 12/01 A3017 RMK AO2 SLP184 T01170006
KMRF 251256Z AUTO 00000KT 10SM CLR 07/M01 A3017 RMK AO2 SLP183 T00671006
KMRF 251156Z AUTO 36004KT 10SM CLR 07/M01 A3016 RMK AO2 SLP173 T00671006 10094 20067 53003
KMRF 251056Z AUTO 32004KT 10SM CLR 07/M01 A3014 RMK AO2 SLP165 T00721006
KMRF 250956Z AUTO 36005KT 10SM CLR 07/M01 A3014 RMK AO2 SLP164 T00721006
KMRF 250856Z AUTO 34005KT 10SM CLR 07/M01 A3015 RMK AO2 SLP166 T00721006 53000
KMRF 250756Z AUTO 33005KT 10SM CLR 07/M02 A3015 RMK AO2 SLP166 T00721017
KMRF 250656Z AUTO 35003KT 10SM CLR 08/M02 A3014 RMK AO2 SLP164 T00781022 402670078
KMRF 250556Z AUTO 00000KT 10SM CLR 09/M02 A3015 RMK AO2 SLP164 T00941017 10239 20083 51007
KMRF 250456Z AUTO 00000KT 10SM CLR 09/M02 A3015 RMK AO2 SLP165 T00941022
KMRF 250356Z AUTO 33006KT 10SM CLR 11/M02 A3014 RMK AO2 SLP163 T01111022
KMRF 250256Z AUTO 34005KT 10SM CLR 12/M02 A3012 RMK AO2 SLP161 T01171017 52020
KMRF 250156Z AUTO 35006KT 10SM CLR 13/M02 A3010 RMK AO2 SLP160 T01331022
KMRF 250056Z AUTO 30007KT 10SM CLR 18/M01 A3008 RMK AO2 SLP144 T01831011
KMRF 242356Z AUTO 27005KT 10SM CLR 24/M01 A3006 RMK AO2 SLP126 T02391006 10267 20239 53002
KMRF 242256Z AUTO 27012KT 10SM CLR 26/M01 A3006 RMK AO2 SLP127 T02561006
KMRF 242156Z AUTO 25010KT 10SM CLR 26/M02 A3005 RMK AO2 SLP126 T02611022
KMRF 242056Z AUTO 24012G16KT 10SM CLR 26/M02 A3005 RMK AO2 SLP128 T02611017 56014
KMRF 241956Z AUTO 23013G19KT 10SM CLR 26/00 A3006 RMK AO2 SLP127 T02560000
KMRF 241856Z AUTO 28014KT 10SM CLR 25/01 A3008 RMK AO2 SLP141 T02500011
KMRF 241756Z AUTO 28015G21KT 10SM CLR 24/02 A3010 RMK AO2 SLP144 T02440022 10250 20094 50004
KMRF 241656Z AUTO 29013G21KT 10SM CLR 24/03 A3010 RMK AO2 SLP145 T02390028
KMRF 241556Z AUTO 27016G20KT 10SM CLR 22/03 A3010 RMK AO2 SLP146 T02220028
KMRF 241456Z AUTO 00000KT 10SM CLR 19/01 A3008 RMK AO2 SLP138 T01890011 53018
KMRF 241356Z AUTO 29004KT 10SM CLR 13/01 A3005 RMK AO2 SLP136 T01280006
KMRF 241256Z AUTO 29010KT 10SM CLR 12/M01 A3004 RMK AO2 SLP126 T01221006
KMRF 241156Z AUTO 28009KT 10SM CLR 14/M01 A3002 RMK AO2 SLP113 T01441011 10150 20083 53013